Airfield :
LOGIN :

Register | Disclaimer

   EN    FR    IT 

 










Legend :    VFR   Marginal VFR   IFR   Intensive IFR   Very Intensive IFR
Visi :
Ceiling :
>= 8 km
>= 3000ft
5 to 8 km
1000 to 3000 ft
1500m to 5 km
500 to 1000 ft
800 to 1500m
200 to 500 ft
< 800m
< 200 ft
Symbols :   Thunderstorms  Fog  Heavy snow  Heavy precipitations  Wind > 20 kt
SIGMETs :     Misc.  Thunderstorms  Icing  Turbulence  Mountain Waves  Volcanic Ashes






- Airport Elevation : 122 ft
- IATA code : TXL


EDDT - Berlin Tegel Int.

CURRENT METAR :
  • 250620Z 29009KT 260V320 9999 FEW010 SCT040 12/09 Q1025 TEMPO BKN012

EXPIRED METARs :
  • 250550Z 28011KT 260V320 9999 -RA FEW010 BKN040 11/09 Q1025 TEMPO BKN012
  • 250520Z 28008KT 250V310 9999 -SHRA FEW009 11/10 Q1025 TEMPO BKN012
  • 250450Z 28007KT 9999 -RA FEW010 SCT020 11/10 Q1025 TEMPO BKN012
  • 250420Z 29008KT 260V330 9999 -RADZ FEW009 SCT013 BKN048 11/09 Q1024 TEMPO BKN012
  • 250350Z 28008KT 9999 FEW014 SCT020 BKN048 11/09 Q1024 TEMPO BKN012

TAF TAF EDDT
Valid from the 25 at 06:00 until the 26 at 06:00 UTC


250500Z 2506/2606 31011KT 9999 SCT020 BKN040
PROB40
TEMPO 2506/2509 4500 -SHRA BKN010TCU
BECMG 2517/2519 33005KT
TEMPO 2602/2606 BKN005
PROB30
TEMPO 2602/2605 2000 BR BKN003



MET'MAP, your aeronautical weather chart ! - Copyright ORBIFLY December 2007 - Disclaimer

ORBIFLY MET'MAP TEAM :

Programming & Development : Alexandra Zaïnal
Concept & original design : Baudouin d'Aumeries
Assistance for programming : Marc-Olivier Méhu
Technical & hardware support : Manuel Goepfert

Contact : metmap@orbifly.com




SOURCES & CREDITS :

   NOAA